Terminal Aerodrome Forecast
Issued by NWS

Home | Current Version | Previous Version | Text Only | Print | Product List | Glossary On
Versions: 1 2 3 4 5 6 7 8 9 10 11 12 13 14 15 16 17 18 19 20 21 22 23 24 25
197
FTUS44 KLIX 221513 AAB
TAFGPT
TAF AMD
KGPT 221513Z 2215/2312 13014KT P6SM BKN006 BKN021
     FM221800 13011KT P6SM SCT015 BKN035
     FM230500 13007KT P6SM FEW003 SCT025
     FM230800 12006KT 3SM BR BKN003 BKN025=

USA.gov is the U.S. government's official web portal to all federal, state and local government web resources and services.